Time;durP1;ratioP1;P1;durP2;ratioP2;P2;SDS_P1;SDS_P2;PMS_P1;PMS_P2;Temp;Humidity;BMP_temperature;BMP_pressure;BME280_temperature;BME280_humidity;BME280_pressure;Samples;Min_cycle;Max_cycle;Signal;HPM_P1;HPM_P2
2023/03/07 00:02:23;;;;;;;14.55;8.95;;;5.70;59.20;;;;;;5057537;28;20041;-63
2023/03/07 00:04:49;;;;;;;15.63;9.25;;;5.70;59.20;;;;;;5069024;28;20037;-62
2023/03/07 00:07:14;;;;;;;13.60;8.50;;;5.70;59.20;;;;;;5071749;28;20040;-63
2023/03/07 00:09:41;;;;;;;13.00;8.27;;;5.70;59.10;;;;;;5067639;28;20036;-62
2023/03/07 00:12:07;;;;;;;12.77;8.43;;;5.70;59.10;;;;;;5058912;28;20036;-62
2023/03/07 00:14:33;;;;;;;12.23;8.43;;;5.70;59.00;;;;;;5062293;28;20132;-62
2023/03/07 00:16:59;;;;;;;13.70;7.90;;;5.70;59.00;;;;;;5062229;28;20053;-63
2023/03/07 00:19:25;;;;;;;12.55;8.43;;;5.70;59.00;;;;;;5059839;28;20225;-63
2023/03/07 00:21:50;;;;;;;14.00;8.40;;;5.70;58.90;;;;;;5062836;28;20036;-63
2023/03/07 00:24:16;;;;;;;15.48;9.27;;;5.70;58.90;;;;;;5068638;28;20084;-63
2023/03/07 00:26:41;;;;;;;14.77;8.75;;;5.70;58.90;;;;;;5063209;28;20085;-63
2023/03/07 00:29:08;;;;;;;14.57;8.30;;;5.70;59.00;;;;;;5062225;28;20029;-62
2023/03/07 00:31:34;;;;;;;11.80;7.63;;;5.70;59.00;;;;;;5068277;28;20021;-63
2023/03/07 00:34:00;;;;;;;16.13;9.23;;;5.70;59.10;;;;;;5064637;28;20141;-63
2023/03/07 00:36:26;;;;;;;14.55;8.77;;;5.70;59.10;;;;;;5062280;28;20025;-63
2023/03/07 00:38:52;;;;;;;17.30;9.65;;;5.60;59.10;;;;;;5062655;28;20031;-63
2023/03/07 00:41:21;;;;;;;13.88;8.68;;;5.70;59.20;;;;;;5059777;28;20025;-63
2023/03/07 00:43:46;;;;;;;13.88;9.05;;;5.70;59.20;;;;;;5067205;28;20073;-63
2023/03/07 00:46:14;;;;;;;15.27;8.13;;;5.60;59.10;;;;;;5069557;28;20028;-63
2023/03/07 00:48:40;;;;;;;17.30;8.85;;;5.70;59.20;;;;;;5067456;28;20063;-63
2023/03/07 00:51:08;;;;;;;14.32;8.75;;;5.60;59.10;;;;;;5071450;28;20024;-63
2023/03/07 00:53:34;;;;;;;14.40;8.75;;;5.60;59.20;;;;;;5067355;28;20045;-63
2023/03/07 00:56:04;;;;;;;14.63;8.35;;;5.60;59.10;;;;;;5064133;28;20048;-63
2023/03/07 00:58:32;;;;;;;16.98;9.77;;;5.60;59.10;;;;;;5067724;28;20027;-63
2023/03/07 01:00:58;;;;;;;16.65;9.07;;;5.60;59.20;;;;;;5061670;28;20029;-62
2023/03/07 01:03:25;;;;;;;14.82;9.23;;;5.50;59.20;;;;;;5068071;28;20395;-62
2023/03/07 01:05:51;;;;;;;14.43;8.57;;;5.60;59.30;;;;;;5061779;28;20309;-62
2023/03/07 01:08:17;;;;;;;15.32;8.57;;;5.50;59.30;;;;;;5062706;28;20021;-62
2023/03/07 01:10:44;;;;;;;22.88;10.93;;;5.50;59.40;;;;;;5059244;28;20071;-63
2023/03/07 01:13:11;;;;;;;25.73;13.25;;;5.50;59.40;;;;;;5074623;28;20028;-63
2023/03/07 01:15:37;;;;;;;58.22;23.35;;;5.50;59.50;;;;;;5056408;28;20048;-62
2023/03/07 01:18:05;;;;;;;60.72;25.77;;;5.50;59.50;;;;;;5067586;28;20062;-62
2023/03/07 01:20:32;;;;;;;81.95;31.63;;;5.60;59.50;;;;;;5058531;28;20424;-62
2023/03/07 01:22:58;;;;;;;76.90;33.88;;;5.50;59.40;;;;;;5065729;28;20021;-62
2023/03/07 01:25:24;;;;;;;33.25;17.52;;;5.50;59.30;;;;;;5060840;28;20472;-62
2023/03/07 01:27:56;;;;;;;25.30;13.15;;;5.60;59.30;;;;;;5064270;28;20039;-62
2023/03/07 01:30:25;;;;;;;19.50;11.13;;;5.50;59.20;;;;;;5063574;28;21318;-62
2023/03/07 01:32:58;;;;;;;17.45;9.65;;;5.50;59.30;;;;;;5062276;28;20064;-62
2023/03/07 01:35:24;;;;;;;16.45;8.60;;;5.50;59.30;;;;;;5057096;28;20040;-62
2023/03/07 01:37:51;;;;;;;16.80;9.10;;;5.50;59.30;;;;;;5064750;28;20051;-62
2023/03/07 01:40:18;;;;;;;14.70;9.27;;;5.50;59.30;;;;;;5061301;28;20025;-62
2023/03/07 01:42:43;;;;;;;16.48;9.32;;;5.50;59.30;;;;;;5065387;28;20021;-62
2023/03/07 01:45:12;;;;;;;19.83;10.85;;;5.50;59.30;;;;;;5059684;28;20043;-62
2023/03/07 01:47:39;;;;;;;15.32;9.00;;;5.50;59.20;;;;;;5060228;28;20030;-63
2023/03/07 01:50:15;;;;;;;14.52;8.77;;;5.40;59.20;;;;;;5061685;28;20578;-63
2023/03/07 01:52:52;;;;;;;15.07;8.95;;;5.40;59.20;;;;;;5063427;28;20391;-63
2023/03/07 01:55:22;;;;;;;14.18;8.52;;;5.40;59.20;;;;;;5060940;28;20029;-62
2023/03/07 01:57:51;;;;;;;13.88;8.85;;;5.40;59.20;;;;;;5053487;28;20040;-62
2023/03/07 02:00:27;;;;;;;16.65;8.73;;;5.30;59.20;;;;;;5065170;28;20017;-62
2023/03/07 02:03:03;;;;;;;15.27;8.48;;;5.30;59.20;;;;;;5064831;28;20121;-63
2023/03/07 02:05:37;;;;;;;16.67;8.98;;;5.30;59.30;;;;;;5062535;28;20034;-63
2023/03/07 02:08:05;;;;;;;15.33;8.87;;;5.30;59.30;;;;;;5062853;28;20136;-64
2023/03/07 02:10:32;;;;;;;15.77;9.15;;;5.30;59.30;;;;;;5055247;28;20057;-63
2023/03/07 02:12:58;;;;;;;16.65;9.27;;;5.20;59.30;;;;;;5055565;28;20036;-62
2023/03/07 02:15:24;;;;;;;15.32;9.23;;;5.20;59.90;;;;;;5051674;28;20040;-62
2023/03/07 02:17:51;;;;;;;14.57;8.55;;;5.20;59.30;;;;;;5063275;28;20021;-62
2023/03/07 02:20:39;;;;;;;16.90;9.45;;;5.20;59.30;;;;;;5065987;28;20530;-63
2023/03/07 02:23:12;;;;;;;17.13;9.02;;;5.20;59.50;;;;;;5066570;28;20391;-62
2023/03/07 02:25:53;;;;;;;17.02;9.23;;;5.10;59.40;;;;;;5061540;28;20029;-63
2023/03/07 02:28:19;;;;;;;16.30;9.45;;;5.10;59.60;;;;;;5060845;28;20029;-62
2023/03/07 02:30:58;;;;;;;16.60;9.35;;;5.10;59.60;;;;;;5060682;28;20029;-63
2023/03/07 02:33:24;;;;;;;14.38;8.98;;;5.10;59.80;;;;;;5058531;28;20063;-62
2023/03/07 02:35:55;;;;;;;15.38;9.60;;;5.10;60.30;;;;;;5068158;28;20029;-62
2023/03/07 02:38:22;;;;;;;16.10;9.13;;;5.10;59.70;;;;;;5060341;28;20029;-62
2023/03/07 02:40:51;;;;;;;14.55;8.65;;;5.00;59.60;;;;;;5061679;28;20085;-62
2023/03/07 02:43:17;;;;;;;14.48;8.93;;;5.10;59.70;;;;;;5062103;28;20020;-62
2023/03/07 02:45:43;;;;;;;12.98;8.43;;;5.00;59.60;;;;;;5070767;28;20088;-63
2023/03/07 02:48:09;;;;;;;16.00;8.98;;;5.00;59.70;;;;;;5058975;28;20057;-62
2023/03/07 02:50:35;;;;;;;14.95;8.68;;;5.00;59.70;;;;;;5060556;28;20021;-62
2023/03/07 02:53:00;;;;;;;15.00;9.10;;;5.00;59.70;;;;;;5061920;28;20085;-61
2023/03/07 02:55:26;;;;;;;14.18;8.32;;;5.00;59.70;;;;;;5055977;28;20055;-62
2023/03/07 02:57:52;;;;;;;13.75;8.35;;;5.00;59.70;;;;;;5061995;28;20076;-63
2023/03/07 03:00:18;;;;;;;17.05;7.97;;;5.00;59.70;;;;;;5063448;28;20107;-61
2023/03/07 03:02:44;;;;;;;15.40;8.80;;;4.90;59.80;;;;;;5064749;28;20029;-62
2023/03/07 03:05:10;;;;;;;12.90;8.00;;;4.90;59.80;;;;;;5061942;28;20162;-63
2023/03/07 03:07:36;;;;;;;18.30;8.20;;;4.90;59.80;;;;;;5059577;28;20032;-61
2023/03/07 03:10:02;;;;;;;13.60;8.45;;;4.90;59.90;;;;;;5058274;28;20100;-63
2023/03/07 03:12:28;;;;;;;13.88;8.30;;;4.80;59.80;;;;;;5061438;28;20527;-62
2023/03/07 03:14:54;;;;;;;10.88;7.53;;;4.80;59.90;;;;;;5054400;28;20041;-62
2023/03/07 03:17:19;;;;;;;17.70;9.45;;;4.80;59.90;;;;;;5059990;28;20108;-63
2023/03/07 03:19:45;;;;;;;17.42;9.57;;;4.80;59.80;;;;;;5065948;28;20029;-62
2023/03/07 03:22:11;;;;;;;19.77;9.10;;;4.80;59.80;;;;;;5059592;28;20032;-63
2023/03/07 03:24:41;;;;;;;14.02;8.38;;;4.80;59.80;;;;;;5062245;28;20032;-63
2023/03/07 03:27:07;;;;;;;16.13;7.85;;;4.70;59.80;;;;;;5070005;28;20036;-62
2023/03/07 03:29:33;;;;;;;14.77;8.05;;;4.70;59.80;;;;;;5065199;28;20048;-62
2023/03/07 03:31:59;;;;;;;18.23;9.68;;;4.70;59.80;;;;;;5064901;28;20044;-63
2023/03/07 03:34:26;;;;;;;17.75;9.13;;;4.60;59.70;;;;;;5060667;28;20040;-62
2023/03/07 03:36:52;;;;;;;18.92;9.00;;;4.60;59.80;;;;;;5064201;28;20026;-62
2023/03/07 03:39:18;;;;;;;16.20;8.27;;;4.50;59.80;;;;;;5058168;28;20040;-62
2023/03/07 03:41:43;;;;;;;15.55;8.95;;;4.50;59.90;;;;;;5057857;28;20143;-62
2023/03/07 03:44:09;;;;;;;18.02;9.15;;;4.50;60.00;;;;;;5067721;28;20050;-62
2023/03/07 03:46:35;;;;;;;16.75;8.45;;;4.50;60.10;;;;;;5060039;28;20045;-62
2023/03/07 03:49:02;;;;;;;20.00;9.18;;;4.40;60.10;;;;;;5064753;28;20051;-62
2023/03/07 03:51:28;;;;;;;15.60;8.68;;;4.40;60.90;;;;;;5067635;28;20017;-62
2023/03/07 03:53:54;;;;;;;16.50;8.65;;;4.40;60.20;;;;;;5068430;28;20028;-62
2023/03/07 03:56:21;;;;;;;15.85;8.77;;;4.40;60.30;;;;;;5068213;28;20084;-62
2023/03/07 03:58:50;;;;;;;17.17;8.88;;;4.40;60.30;;;;;;5062849;28;20029;-62
2023/03/07 04:01:17;;;;;;;14.52;8.55;;;4.40;60.30;;;;;;5067677;28;20075;-62
2023/03/07 04:03:45;;;;;;;15.45;8.77;;;4.40;60.20;;;;;;5060830;28;20112;-63
2023/03/07 04:06:17;;;;;;;13.38;7.97;;;4.40;60.30;;;;;;5070012;28;20020;-62
2023/03/07 04:08:43;;;;;;;13.90;8.70;;;4.30;60.30;;;;;;5065433;28;20027;-63
2023/03/07 04:11:09;;;;;;;15.38;8.43;;;4.30;60.30;;;;;;5064431;28;20025;-62
2023/03/07 04:13:35;;;;;;;14.65;8.65;;;4.30;60.40;;;;;;5069307;28;20477;-63
2023/03/07 04:16:01;;;;;;;14.82;8.40;;;4.30;60.40;;;;;;5056684;28;20033;-61
2023/03/07 04:18:27;;;;;;;17.27;8.63;;;4.30;60.50;;;;;;5061627;28;20036;-61
2023/03/07 04:20:53;;;;;;;13.98;7.78;;;4.30;60.50;;;;;;5059912;28;20430;-60
2023/03/07 04:23:20;;;;;;;13.13;8.20;;;4.20;60.50;;;;;;5058872;28;20029;-61
2023/03/07 04:25:48;;;;;;;14.18;8.40;;;4.20;60.50;;;;;;5071324;28;20080;-62
2023/03/07 04:28:14;;;;;;;17.70;8.20;;;4.20;60.50;;;;;;5062699;28;20025;-63
2023/03/07 04:30:40;;;;;;;15.13;8.05;;;4.20;60.50;;;;;;5061793;28;20025;-62
2023/03/07 04:33:06;;;;;;;14.60;8.18;;;4.20;60.70;;;;;;5070675;28;20096;-62
2023/03/07 04:35:31;;;;;;;16.40;8.90;;;4.10;60.80;;;;;;5065609;28;20035;-62
2023/03/07 04:37:57;;;;;;;17.05;8.75;;;4.10;61.00;;;;;;5064579;28;20573;-64
2023/03/07 04:40:23;;;;;;;17.10;8.90;;;4.10;61.80;;;;;;5062339;28;20035;-63
2023/03/07 04:42:48;;;;;;;16.13;8.00;;;4.10;61.30;;;;;;5065350;28;20051;-62
2023/03/07 04:45:14;;;;;;;15.38;8.30;;;4.10;61.50;;;;;;5070742;28;20042;-63
2023/03/07 04:47:39;;;;;;;13.93;8.68;;;4.10;61.60;;;;;;5068945;28;20032;-62
2023/03/07 04:50:06;;;;;;;15.05;8.60;;;4.20;61.80;;;;;;5064200;28;20410;-62
2023/03/07 04:52:32;;;;;;;14.77;8.57;;;4.20;61.90;;;;;;5069519;28;20136;-61
2023/03/07 04:54:57;;;;;;;16.92;8.85;;;4.20;61.90;;;;;;5061799;28;20176;-63
2023/03/07 04:57:23;;;;;;;15.00;9.45;;;4.20;62.10;;;;;;5063677;28;20024;-61
2023/03/07 04:59:49;;;;;;;14.65;9.25;;;4.20;62.10;;;;;;5057628;28;20025;-62
2023/03/07 05:02:14;;;;;;;15.80;8.63;;;4.30;62.20;;;;;;5069660;28;20021;-62
2023/03/07 05:04:40;;;;;;;15.32;8.80;;;4.30;62.20;;;;;;5064828;28;20036;-62
2023/03/07 05:07:05;;;;;;;17.52;9.95;;;4.30;62.10;;;;;;5065826;28;20073;-62
2023/03/07 05:09:31;;;;;;;15.23;9.00;;;4.40;62.10;;;;;;5063211;28;20118;-63
2023/03/07 05:11:57;;;;;;;14.68;8.73;;;4.40;62.10;;;;;;5056545;28;20044;-62
2023/03/07 05:14:22;;;;;;;14.90;9.30;;;4.40;62.00;;;;;;5064906;28;20033;-62
2023/03/07 05:16:48;;;;;;;14.80;8.88;;;4.50;62.10;;;;;;5063722;28;20079;-62
2023/03/07 05:19:14;;;;;;;14.60;8.00;;;4.50;61.90;;;;;;5059803;28;20024;-62
2023/03/07 05:21:40;;;;;;;15.77;8.18;;;4.50;61.90;;;;;;5064750;28;20471;-62
2023/03/07 05:24:07;;;;;;;14.07;8.55;;;4.50;61.80;;;;;;5060525;28;20018;-63
2023/03/07 05:26:32;;;;;;;13.20;8.23;;;4.60;61.80;;;;;;5064778;28;20021;-64
2023/03/07 05:28:59;;;;;;;13.20;8.18;;;4.60;61.50;;;;;;5064200;28;20275;-63
2023/03/07 05:31:25;;;;;;;12.27;7.90;;;4.60;61.50;;;;;;5064195;28;20549;-63
2023/03/07 05:33:51;;;;;;;12.85;7.80;;;4.70;61.60;;;;;;5066662;28;20033;-61
2023/03/07 05:36:17;;;;;;;12.88;7.80;;;4.70;61.60;;;;;;5063906;28;20024;-63
2023/03/07 05:38:43;;;;;;;12.43;8.00;;;4.70;61.40;;;;;;5066840;28;20027;-65
2023/03/07 05:41:09;;;;;;;12.50;8.40;;;4.80;61.40;;;;;;5064987;28;20024;-62
2023/03/07 05:43:34;;;;;;;13.02;8.55;;;4.80;61.30;;;;;;5064337;28;20152;-62
2023/03/07 05:46:00;;;;;;;10.63;7.57;;;4.80;61.20;;;;;;5057763;28;20043;-62
2023/03/07 05:48:26;;;;;;;13.68;8.52;;;4.80;61.00;;;;;;5067857;28;20025;-62
2023/03/07 05:50:51;;;;;;;14.38;7.78;;;4.80;60.90;;;;;;5059780;28;20104;-62
2023/03/07 05:53:17;;;;;;;15.85;9.30;;;4.80;60.90;;;;;;5065268;28;20041;-62
2023/03/07 05:55:44;;;;;;;15.55;8.65;;;4.90;60.90;;;;;;5063688;28;20140;-62
2023/03/07 05:58:09;;;;;;;16.00;8.75;;;4.90;60.80;;;;;;5068412;28;20024;-62
2023/03/07 06:00:35;;;;;;;16.00;9.20;;;4.90;60.60;;;;;;5065365;28;20479;-62
2023/03/07 06:03:02;;;;;;;14.38;8.90;;;4.90;60.60;;;;;;5063391;28;20029;-61
2023/03/07 06:05:28;;;;;;;14.75;8.45;;;4.90;60.60;;;;;;5060711;28;20013;-62
2023/03/07 06:07:54;;;;;;;14.13;8.75;;;4.90;60.60;;;;;;5066242;28;20059;-63
2023/03/07 06:10:20;;;;;;;13.98;8.75;;;4.90;60.50;;;;;;5062518;28;20051;-62
2023/03/07 06:12:49;;;;;;;14.15;8.13;;;5.00;60.50;;;;;;5064803;28;20084;-63
2023/03/07 06:15:15;;;;;;;14.02;8.68;;;5.00;60.40;;;;;;5066911;28;20025;-62
2023/03/07 06:17:41;;;;;;;17.20;8.38;;;5.00;60.30;;;;;;5060690;28;20058;-62
2023/03/07 06:20:08;;;;;;;13.85;7.97;;;5.00;60.20;;;;;;5054140;28;20107;-63
2023/03/07 06:22:36;;;;;;;14.85;8.10;;;5.00;60.20;;;;;;5058514;28;20028;-62
2023/03/07 06:25:06;;;;;;;14.75;7.78;;;5.00;60.00;;;;;;5067452;28;20051;-62
2023/03/07 06:27:33;;;;;;;13.57;8.05;;;5.00;59.90;;;;;;5063110;28;20027;-63
2023/03/07 06:29:59;;;;;;;19.20;7.68;;;5.00;59.90;;;;;;5056651;28;20104;-63
2023/03/07 06:32:24;;;;;;;18.80;7.88;;;5.00;59.80;;;;;;5060147;28;20080;-61
2023/03/07 06:34:50;;;;;;;11.65;7.38;;;5.00;59.80;;;;;;5062818;28;20360;-61
2023/03/07 06:37:16;;;;;;;14.50;7.88;;;5.00;59.80;;;;;;5064683;28;20163;-61
2023/03/07 06:39:41;;;;;;;12.55;7.57;;;5.10;59.70;;;;;;5064276;28;20035;-61
2023/03/07 06:42:07;;;;;;;14.15;8.10;;;5.00;59.60;;;;;;5061002;28;20030;-62
2023/03/07 06:44:33;;;;;;;16.80;8.25;;;5.00;60.10;;;;;;5058983;28;20488;-61
2023/03/07 06:46:59;;;;;;;14.50;8.07;;;5.10;59.60;;;;;;5062158;28;20041;-62
2023/03/07 06:49:25;;;;;;;15.68;8.07;;;5.10;59.60;;;;;;5066850;28;20059;-62
2023/03/07 06:51:50;;;;;;;14.55;7.82;;;5.10;59.60;;;;;;5061153;28;20088;-63
2023/03/07 06:54:16;;;;;;;12.57;7.03;;;5.10;59.60;;;;;;5065432;28;20044;-64
2023/03/07 06:56:42;;;;;;;17.35;8.15;;;5.10;59.50;;;;;;5068452;28;20072;-63
2023/03/07 06:59:07;;;;;;;11.55;7.30;;;5.10;59.30;;;;;;5072624;28;20050;-62
2023/03/07 07:01:34;;;;;;;15.05;7.57;;;5.10;59.40;;;;;;5064383;28;20044;-64
2023/03/07 07:04:00;;;;;;;9.73;7.22;;;5.20;59.40;;;;;;5062043;28;20028;-62
2023/03/07 07:06:25;;;;;;;10.18;6.97;;;5.20;59.40;;;;;;5056875;28;20021;-62
2023/03/07 07:08:58;;;;;;;18.33;11.10;;;5.20;59.30;;;;;;5066860;28;20048;-63
2023/03/07 07:11:24;;;;;;;18.13;8.00;;;5.30;59.20;;;;;;5071570;28;20173;-64
2023/03/07 07:13:50;;;;;;;11.45;7.13;;;5.30;59.20;;;;;;5066126;28;20041;-61
2023/03/07 07:16:16;;;;;;;11.63;7.35;;;5.30;59.10;;;;;;5056339;28;20029;-62
2023/03/07 07:18:42;;;;;;;12.02;7.35;;;5.30;59.00;;;;;;5075254;28;20029;-62
2023/03/07 07:21:08;;;;;;;12.68;7.30;;;5.40;59.00;;;;;;5059145;28;20076;-63
2023/03/07 07:23:34;;;;;;;13.75;7.20;;;5.40;59.00;;;;;;5062655;28;20025;-62
2023/03/07 07:26:00;;;;;;;16.58;7.47;;;5.50;59.00;;;;;;5060390;28;20017;-61
2023/03/07 07:28:26;;;;;;;18.98;8.27;;;5.50;59.00;;;;;;5073290;28;20021;-62
2023/03/07 07:30:52;;;;;;;11.32;7.55;;;5.60;59.10;;;;;;5072519;28;20032;-62
2023/03/07 07:33:18;;;;;;;13.13;7.72;;;5.60;59.10;;;;;;5065066;28;20044;-63
2023/03/07 07:35:45;;;;;;;13.77;8.05;;;5.70;58.90;;;;;;5060301;28;20036;-64
2023/03/07 07:38:11;;;;;;;13.70;8.18;;;5.80;58.80;;;;;;5069477;28;20024;-62
2023/03/07 07:40:37;;;;;;;12.63;7.55;;;5.90;58.60;;;;;;5061450;28;20054;-62
2023/03/07 07:43:02;;;;;;;12.40;7.45;;;5.90;58.60;;;;;;5066635;28;20067;-62
2023/03/07 07:45:28;;;;;;;17.00;8.75;;;6.00;58.50;;;;;;5057119;28;20600;-61
2023/03/07 07:47:54;;;;;;;13.90;7.60;;;6.00;58.10;;;;;;5066349;28;20037;-62
2023/03/07 07:50:21;;;;;;;12.68;7.88;;;6.10;58.30;;;;;;5064829;28;20040;-61
2023/03/07 07:52:47;;;;;;;15.95;7.32;;;6.10;58.20;;;;;;5056699;28;20025;-62
2023/03/07 07:55:13;;;;;;;14.98;7.90;;;6.20;58.30;;;;;;5069181;28;20036;-62
2023/03/07 07:57:40;;;;;;;10.43;6.72;;;6.20;58.20;;;;;;5064351;28;20495;-60
2023/03/07 08:00:08;;;;;;;12.32;7.20;;;6.30;58.00;;;;;;5065104;28;20088;-62
2023/03/07 08:02:36;;;;;;;11.77;7.13;;;6.30;58.00;;;;;;5069950;28;20051;-62
2023/03/07 08:05:05;;;;;;;12.93;7.85;;;6.40;58.00;;;;;;5070688;28;20052;-63
2023/03/07 08:07:30;;;;;;;15.13;8.82;;;6.40;57.90;;;;;;5063559;28;20017;-63
2023/03/07 08:09:56;;;;;;;12.27;7.50;;;6.50;57.80;;;;;;5064482;28;20365;-62
2023/03/07 08:12:22;;;;;;;11.55;7.25;;;6.50;57.50;;;;;;5065013;28;20017;-62
2023/03/07 08:14:47;;;;;;;13.27;7.70;;;6.50;57.60;;;;;;5071950;28;20075;-64
2023/03/07 08:17:13;;;;;;;10.63;6.85;;;6.60;57.50;;;;;;5072036;28;20048;-62
2023/03/07 08:19:39;;;;;;;11.38;6.97;;;6.60;57.50;;;;;;5061870;28;20044;-62
2023/03/07 08:22:04;;;;;;;12.18;7.40;;;6.60;57.60;;;;;;5068436;28;20051;-62
2023/03/07 08:24:33;;;;;;;12.38;7.47;;;6.70;57.60;;;;;;5059172;28;20025;-61
2023/03/07 08:27:00;;;;;;;12.70;7.35;;;6.70;57.50;;;;;;5066933;28;20044;-63
2023/03/07 08:29:26;;;;;;;12.23;7.45;;;6.80;57.40;;;;;;5066315;28;20032;-62
2023/03/07 08:31:53;;;;;;;15.38;7.80;;;6.90;57.40;;;;;;5072359;28;20048;-63
2023/03/07 08:34:19;;;;;;;11.02;7.47;;;6.90;57.40;;;;;;5063719;28;20075;-63
2023/03/07 08:36:45;;;;;;;13.00;7.45;;;7.00;57.50;;;;;;5078344;28;20115;-61
2023/03/07 08:39:11;;;;;;;12.27;7.30;;;7.10;57.50;;;;;;5059805;28;20021;-62
2023/03/07 08:41:37;;;;;;;11.18;7.03;;;7.30;57.40;;;;;;5089904;28;20048;-62
2023/03/07 08:44:03;;;;;;;13.95;6.97;;;7.40;57.20;;;;;;5066875;28;20021;-62
2023/03/07 08:46:29;;;;;;;14.10;7.40;;;7.50;57.10;;;;;;5069702;28;20096;-61
2023/03/07 08:48:55;;;;;;;11.15;7.25;;;7.60;56.90;;;;;;5069146;28;20483;-62
2023/03/07 08:51:21;;;;;;;9.95;6.88;;;7.80;56.40;;;;;;5053849;28;20044;-62
2023/03/07 08:53:47;;;;;;;9.13;6.20;;;7.90;55.80;;;;;;5072424;28;20027;-62
2023/03/07 08:56:16;;;;;;;11.80;6.35;;;8.00;56.00;;;;;;5069877;28;20435;-62
2023/03/07 08:58:41;;;;;;;10.57;6.72;;;8.10;55.80;;;;;;5076286;28;20025;-63
2023/03/07 09:01:08;;;;;;;10.13;7.03;;;8.10;55.80;;;;;;5060736;28;20046;-62
2023/03/07 09:03:36;;;;;;;11.98;7.28;;;8.20;54.50;;;;;;5068757;28;20369;-62
2023/03/07 09:06:02;;;;;;;9.48;6.38;;;8.30;54.40;;;;;;5058761;28;21830;-63
2023/03/07 09:08:28;;;;;;;10.20;7.05;;;8.30;54.30;;;;;;5063355;28;20037;-64
2023/03/07 09:10:54;;;;;;;9.70;7.03;;;8.30;53.70;;;;;;5068275;28;20024;-63
2023/03/07 09:13:20;;;;;;;11.27;6.93;;;8.30;53.50;;;;;;5073716;28;20020;-65
2023/03/07 09:15:45;;;;;;;10.00;6.15;;;8.30;53.60;;;;;;5073737;28;20059;-62
2023/03/07 09:18:11;;;;;;;11.77;6.78;;;8.30;53.90;;;;;;5068756;28;20021;-62
2023/03/07 09:20:37;;;;;;;11.30;6.90;;;8.30;53.80;;;;;;5068105;28;20027;-62
2023/03/07 09:23:04;;;;;;;12.02;6.50;;;8.30;52.80;;;;;;5067481;28;20021;-63
2023/03/07 09:25:29;;;;;;;10.55;7.15;;;8.30;53.90;;;;;;5064321;28;20466;-62
2023/03/07 09:27:55;;;;;;;10.07;6.85;;;8.40;53.80;;;;;;5065590;28;20032;-62
2023/03/07 09:30:21;;;;;;;10.50;6.78;;;8.40;53.90;;;;;;5068423;28;20033;-62
2023/03/07 09:32:48;;;;;;;10.73;6.38;;;8.50;53.70;;;;;;5062962;28;20076;-62
2023/03/07 09:35:14;;;;;;;17.48;6.53;;;8.50;53.70;;;;;;5067625;28;20032;-61
2023/03/07 09:37:40;;;;;;;9.95;6.55;;;8.50;53.30;;;;;;5072358;28;20021;-63
2023/03/07 09:40:06;;;;;;;11.02;6.82;;;8.50;53.10;;;;;;5061074;28;20052;-62
2023/03/07 09:42:35;;;;;;;11.13;6.72;;;8.50;53.60;;;;;;5060702;28;20116;-62
2023/03/07 09:45:23;;;;;;;9.98;6.70;;;8.50;52.80;;;;;;5068305;28;20016;-62
2023/03/07 09:47:56;;;;;;;12.10;6.40;;;8.40;52.70;;;;;;5068283;28;20435;-61
2023/03/07 09:50:31;;;;;;;14.48;6.30;;;8.40;52.60;;;;;;5073624;28;20023;-63
2023/03/07 09:53:02;;;;;;;13.90;7.03;;;8.40;52.80;;;;;;5065440;28;20013;-63
2023/03/07 09:55:29;;;;;;;11.25;6.53;;;8.40;52.90;;;;;;5066149;28;20036;-61
2023/03/07 09:57:59;;;;;;;11.07;6.47;;;8.50;53.10;;;;;;5065682;28;20017;-62
2023/03/07 10:00:41;;;;;;;8.85;6.40;;;8.50;53.10;;;;;;5072918;28;20047;-62
2023/03/07 10:03:32;;;;;;;9.23;5.72;;;8.70;52.50;;;;;;5068990;28;20098;-62
2023/03/07 10:06:22;;;;;;;9.55;5.38;;;8.90;53.00;;;;;;5052100;28;20044;-62
2023/03/07 10:08:47;;;;;;;10.98;5.32;;;9.00;52.20;;;;;;5062897;28;20028;-61
2023/03/07 10:11:27;;;;;;;10.50;5.85;;;9.20;52.70;;;;;;5067783;28;20494;-62
2023/03/07 10:14:14;;;;;;;8.40;5.47;;;9.30;52.30;;;;;;5069208;28;20025;-62
2023/03/07 10:16:54;;;;;;;7.47;5.63;;;9.40;51.30;;;;;;5060856;28;20048;-64
2023/03/07 10:19:37;;;;;;;8.55;6.20;;;9.40;50.80;;;;;;5064471;28;20021;-63
2023/03/07 10:22:20;;;;;;;7.93;5.43;;;9.40;50.80;;;;;;5045588;28;20026;-61
2023/03/07 10:25:06;;;;;;;10.40;5.38;;;9.40;51.00;;;;;;5059010;28;20020;-63
2023/03/07 10:27:32;;;;;;;7.05;5.05;;;9.30;49.70;;;;;;5048765;28;20029;-63
2023/03/07 10:30:00;;;;;;;6.75;5.38;;;9.20;50.30;;;;;;5064931;28;20025;-63
2023/03/07 10:32:39;;;;;;;6.45;5.18;;;9.20;49.90;;;;;;5059073;28;20061;-63
2023/03/07 10:35:11;;;;;;;8.95;5.28;;;9.10;49.30;;;;;;5055578;28;20102;-63
2023/03/07 10:37:39;;;;;;;8.02;5.03;;;9.00;49.30;;;;;;5059953;28;20509;-63
2023/03/07 10:40:13;;;;;;;8.07;5.30;;;8.90;49.80;;;;;;5059319;28;20467;-62
2023/03/07 10:42:39;;;;;;;6.82;4.97;;;8.90;50.00;;;;;;5065756;28;20025;-62
2023/03/07 10:45:06;;;;;;;6.80;4.90;;;8.80;48.10;;;;;;5061286;28;20013;-62
2023/03/07 10:47:31;;;;;;;9.20;4.70;;;8.70;49.00;;;;;;5056753;28;20033;-62
2023/03/07 10:50:20;;;;;;;8.27;4.40;;;8.70;49.50;;;;;;5071749;28;20036;-62
2023/03/07 10:52:52;;;;;;;10.77;4.35;;;8.70;49.40;;;;;;5065747;28;20025;-62
2023/03/07 10:55:37;;;;;;;7.20;4.63;;;8.80;49.90;;;;;;5059343;28;20483;-63
2023/03/07 10:58:23;;;;;;;7.35;5.25;;;8.80;49.20;;;;;;5065043;28;20021;-63
2023/03/07 11:01:07;;;;;;;7.38;4.80;;;8.90;48.30;;;;;;5063420;28;20045;-62
2023/03/07 11:03:56;;;;;;;6.85;5.43;;;8.90;47.00;;;;;;5068437;28;20171;-63
2023/03/07 11:06:39;;;;;;;10.40;6.15;;;8.90;47.80;;;;;;5056210;28;20035;-62
2023/03/07 11:09:28;;;;;;;7.90;5.63;;;9.00;47.80;;;;;;5064148;28;20036;-62
2023/03/07 11:12:04;;;;;;;8.18;5.13;;;8.90;47.10;;;;;;5056373;28;20037;-62
2023/03/07 11:14:44;;;;;;;8.55;5.13;;;8.90;47.60;;;;;;5068071;28;20029;-62
2023/03/07 11:17:22;;;;;;;8.65;5.15;;;8.90;48.00;;;;;;5061263;28;20029;-62
2023/03/07 11:19:54;;;;;;;7.57;4.97;;;8.90;47.50;;;;;;5064873;28;20028;-62
2023/03/07 11:22:20;;;;;;;10.57;5.38;;;8.90;48.30;;;;;;5059718;28;20043;-63
2023/03/07 11:24:54;;;;;;;6.80;4.72;;;8.90;48.40;;;;;;5062008;28;20062;-62
2023/03/07 11:27:52;;;;;;;7.53;4.70;;;9.00;48.30;;;;;;5072043;28;20025;-63
2023/03/07 11:30:45;;;;;;;12.77;7.57;;;9.00;48.40;;;;;;5061317;28;20432;-62
2023/03/07 11:33:26;;;;;;;7.38;5.47;;;9.10;48.50;;;;;;5058855;28;20072;-62
2023/03/07 11:36:05;;;;;;;11.82;6.80;;;9.10;48.10;;;;;;5065592;28;20041;-62
2023/03/07 11:38:51;;;;;;;10.38;6.28;;;9.10;47.30;;;;;;5060810;28;20060;-63
2023/03/07 11:41:27;;;;;;;10.65;5.95;;;9.10;46.20;;;;;;5061047;28;20013;-61
2023/03/07 11:44:21;;;;;;;10.65;5.82;;;9.10;46.10;;;;;;5066443;28;20020;-62
2023/03/07 11:47:07;;;;;;;7.55;5.47;;;9.00;47.00;;;;;;5058501;28;20128;-62
2023/03/07 11:49:54;;;;;;;7.50;5.05;;;9.00;47.00;;;;;;5061355;28;20033;-62
2023/03/07 11:52:52;;;;;;;6.55;4.97;;;8.90;47.40;;;;;;5069123;28;20037;-62
2023/03/07 11:55:35;;;;;;;14.20;5.50;;;8.90;47.60;;;;;;5067326;28;20040;-63
2023/03/07 11:58:26;;;;;;;10.07;6.15;;;8.90;47.80;;;;;;5068142;28;20033;-62
2023/03/07 12:00:57;;;;;;;16.13;6.25;;;9.00;47.70;;;;;;5066106;28;20045;-63
2023/03/07 12:03:57;;;;;;;8.00;5.90;;;9.00;47.80;;;;;;5068020;28;20025;-63
2023/03/07 12:06:50;;;;;;;9.93;5.40;;;9.10;47.60;;;;;;5070426;28;20044;-62
2023/03/07 12:09:19;;;;;;;8.75;5.63;;;9.10;47.60;;;;;;5071327;28;20017;-63
2023/03/07 12:12:00;;;;;;;8.93;4.90;;;9.10;48.30;;;;;;5067946;28;20036;-62
2023/03/07 12:14:25;;;;;;;7.50;5.50;;;9.10;48.40;;;;;;5060584;28;20060;-62
2023/03/07 12:17:12;;;;;;;10.23;5.50;;;9.10;48.50;;;;;;5065737;28;20033;-62
2023/03/07 12:19:57;;;;;;;7.30;5.22;;;9.10;48.20;;;;;;5066977;28;20025;-62
2023/03/07 12:22:32;;;;;;;10.98;7.07;;;9.20;47.20;;;;;;5052831;28;20088;-63
2023/03/07 12:25:15;;;;;;;10.07;5.80;;;9.20;46.80;;;;;;5062255;28;20021;-63
2023/03/07 12:28:03;;;;;;;7.57;5.38;;;9.30;47.70;;;;;;5064110;28;20023;-64
2023/03/07 12:31:08;;;;;;;10.63;5.82;;;9.40;48.20;;;;;;5067209;28;20025;-62
2023/03/07 12:34:18;;;;;;;7.93;5.25;;;9.40;48.30;;;;;;5056457;28;20459;-63
2023/03/07 12:37:05;;;;;;;8.43;6.10;;;9.70;48.50;;;;;;5054663;28;20063;-62
2023/03/07 12:39:52;;;;;;;12.65;6.55;;;9.90;48.10;;;;;;5065292;28;20043;-62
2023/03/07 12:42:45;;;;;;;9.60;5.68;;;10.10;47.50;;;;;;5066246;28;20457;-62
2023/03/07 12:45:18;;;;;;;9.32;6.20;;;10.30;46.80;;;;;;5068193;28;20017;-64
2023/03/07 12:47:56;;;;;;;10.52;5.60;;;10.40;47.30;;;;;;5064234;28;20063;-62
2023/03/07 12:50:40;;;;;;;11.43;6.43;;;10.50;46.70;;;;;;5066508;28;20033;-63
2023/03/07 12:53:27;;;;;;;12.50;5.97;;;10.60;46.90;;;;;;5071114;28;20210;-64
2023/03/07 12:56:18;;;;;;;12.10;6.28;;;10.70;46.40;;;;;;5060977;28;20398;-64
2023/03/07 12:59:09;;;;;;;12.85;6.65;;;10.90;45.80;;;;;;5058340;28;20028;-64
2023/03/07 13:01:40;;;;;;;10.75;6.47;;;11.00;44.50;;;;;;5088642;28;20059;-64
2023/03/07 13:04:22;;;;;;;9.43;6.25;;;11.10;43.50;;;;;;5069546;28;20031;-62